Aérodrome :
LOGIN :

S'inscrire | Disclaimer

   EN    FR    IT 

 










Légende :    VFR   VFR Marginal   IFR   IFR Intensif   IFR Très Intensif
Visi : 
Plafond : 
>= 8 km
>= 3000ft
5 à 8 km
1000 à 3000 ft
1500m à 5 km
500 à 1000 ft
800 à 1500m
200 à 500 ft
< 800m
< 200 ft
Symboles :   Orages  Brouillard  Fortes neiges  Fortes précipitations  Vent > 20 kt
SIGMETs :   Divers  Orages  Givrage  Turbulence  Onde Orograph.  Cendres Volcan.







- Altitude de l'aérodrome : 1115 ft
- Code IATA : GRZ


LOWG - Graz

DERNIER METAR :
  • 251520Z 35017KT 9999 FEW050 SCT060 BKN080 09/M01 Q1012 NOSIG

METARs EXPIRÉS :
  • 251450Z 02009G22KT 340V040 9999 FEW050 SCT060 BKN080 10/02 Q1011 NOSIG
  • 251420Z VRB01KT 9999 FEW050 SCT060 BKN080 09/07 Q1011 NOSIG
  • 251350Z VRB02KT 9999 -SHRA FEW045 SCT055 BKN080 10/05 Q1012 NOSIG
  • 251320Z VRB04KT 8000 -SHRA FEW045 SCT060 BKN090 11/07 Q1012 NOSIG
  • 251250Z 15008KT 8000 FEW050 FEW050CB SCT060 BKN090 11/07 Q1011 NOSIG

TAF TAF LOWG
Valide du 25 à 12h jusqu'au 26 à 12h UTC


251115Z 2512/2612 VRB02KT 9999 SCT060 BKN090 TX13/2512Z TN03/2605Z
TEMPO 2512/2517 16008KT -SHRA SCT050 BKN060
PROB30
TEMPO 2512/2515 SHRA FEW040TCU SCT040 BKN050
TEMPO 2517/2612 34008G18KT
Pas de NOTAMs connus pour ce terrain.



MET'MAP, la Météo Aéronautique d'un coup d'oeil ! - Copyright ORBIFLY Décembre 2007 - Disclaimer

ORBIFLY MET'MAP TEAM :

Programmation & Développement : Alexandra Zaïnal
Conception & Développement : Baudouin d'Aumeries
Co-Programmation & Développement : Marc-Olivier Méhu
Soutien technique & logistique : Manuel Goepfert

Contact : metmap@orbifly.com




SOURCES & CREDITS :

   NOAA